Time;durP1;ratioP1;P1;durP2;ratioP2;P2;SDS_P1;SDS_P2;PMS_P1;PMS_P2;Temp;Humidity;BMP_temperature;BMP_pressure;BME280_temperature;BME280_humidity;BME280_pressure;Samples;Min_cycle;Max_cycle;Signal;HPM_P1;HPM_P2
2022/07/04 00:00:59;;;;;;;6.32;2.83;;;30.20;71.00;;;;;;5035663;28;20108;-81
2022/07/04 00:03:25;;;;;;;4.03;2.28;;;30.20;70.90;;;;;;5017708;28;20121;-84
2022/07/04 00:05:51;;;;;;;4.18;2.22;;;30.20;70.90;;;;;;5035788;28;20116;-84
2022/07/04 00:08:16;;;;;;;4.15;2.28;;;30.20;71.10;;;;;;5036020;28;20072;-83
2022/07/04 00:10:42;;;;;;;3.13;2.30;;;30.30;71.20;;;;;;5035484;28;20065;-83
2022/07/04 00:13:08;;;;;;;4.90;2.60;;;30.30;71.00;;;;;;5034928;28;20433;-83
2022/07/04 00:15:33;;;;;;;6.72;2.63;;;30.30;71.00;;;;;;5035462;28;20045;-83
2022/07/04 00:17:59;;;;;;;4.38;2.22;;;30.30;71.00;;;;;;5035447;28;20033;-82
2022/07/04 00:20:25;;;;;;;4.90;2.58;;;30.20;71.00;;;;;;5034890;28;20034;-83
2022/07/04 00:22:50;;;;;;;4.57;2.30;;;30.20;71.10;;;;;;5035101;28;20030;-83
2022/07/04 00:25:16;;;;;;;6.40;2.72;;;30.20;71.10;;;;;;5035002;28;20373;-83
2022/07/04 00:27:42;;;;;;;4.40;2.35;;;30.20;71.00;;;;;;5034930;28;20108;-83
2022/07/04 00:30:08;;;;;;;8.07;2.58;;;30.20;70.60;;;;;;5035131;28;20094;-83
2022/07/04 00:32:34;;;;;;;5.05;2.92;;;30.20;70.50;;;;;;5035019;28;20045;-84
2022/07/04 00:34:59;;;;;;;3.70;2.80;;;30.20;70.30;;;;;;5006714;23;20065;-79
2022/07/04 00:37:25;;;;;;;4.93;2.72;;;30.20;70.20;;;;;;4997660;28;20022;-80
2022/07/04 00:39:51;;;;;;;4.05;2.75;;;30.20;70.40;;;;;;5014912;28;20029;-79
2022/07/04 00:42:16;;;;;;;7.35;2.67;;;30.20;70.40;;;;;;5023025;28;20075;-77
2022/07/04 00:44:42;;;;;;;6.30;3.20;;;30.20;70.40;;;;;;5034668;28;20033;-78
2022/07/04 00:47:08;;;;;;;6.65;2.42;;;30.00;70.00;;;;;;5001216;28;20488;-80
2022/07/04 00:49:34;;;;;;;4.70;2.97;;;29.90;70.10;;;;;;5014963;28;20553;-79
2022/07/04 00:52:01;;;;;;;9.65;3.50;;;29.90;70.30;;;;;;5025977;28;20064;-82
2022/07/04 00:54:29;;;;;;;6.90;3.75;;;29.80;70.70;;;;;;5034603;28;20045;-82
2022/07/04 00:56:56;;;;;;;4.65;3.50;;;29.70;70.80;;;;;;5034542;28;20492;-82
2022/07/04 00:59:22;;;;;;;8.43;4.75;;;29.60;71.30;;;;;;5034135;28;20030;-82
2022/07/04 01:01:48;;;;;;;9.25;4.50;;;29.50;71.90;;;;;;5028048;28;20022;-82
2022/07/04 01:04:14;;;;;;;6.78;3.30;;;29.40;72.30;;;;;;5014328;28;20030;-82
2022/07/04 01:06:40;;;;;;;4.65;2.42;;;29.30;71.80;;;;;;5014660;28;20355;-81
2022/07/04 01:09:06;;;;;;;3.47;2.45;;;29.40;72.30;;;;;;5014759;28;20034;-78
2022/07/04 01:11:31;;;;;;;6.15;2.88;;;29.40;72.30;;;;;;5014649;28;20022;-79
2022/07/04 01:13:58;;;;;;;5.68;2.53;;;29.50;72.00;;;;;;5022391;28;20064;-79
2022/07/04 01:16:26;;;;;;;5.32;2.75;;;29.50;71.20;;;;;;5034213;28;20454;-80
2022/07/04 01:18:52;;;;;;;5.30;2.30;;;29.60;70.80;;;;;;5033952;28;20400;-80
2022/07/04 01:21:19;;;;;;;3.92;2.50;;;29.50;70.20;;;;;;5033969;28;20029;-80
2022/07/04 01:23:45;;;;;;;6.90;2.33;;;29.50;69.80;;;;;;5034294;28;20026;-80
2022/07/04 01:26:11;;;;;;;6.22;2.47;;;29.40;69.00;;;;;;5016286;28;20075;-80
2022/07/04 01:28:37;;;;;;;6.03;2.95;;;29.30;68.70;;;;;;5033969;28;20029;-80
2022/07/04 01:31:03;;;;;;;3.88;3.03;;;29.20;69.00;;;;;;5024584;28;20033;-80
2022/07/04 01:33:29;;;;;;;8.88;2.88;;;29.00;69.10;;;;;;5013861;28;20060;-79
2022/07/04 01:35:54;;;;;;;4.50;2.50;;;28.90;69.60;;;;;;5014164;28;20026;-80
2022/07/04 01:38:20;;;;;;;5.03;3.78;;;28.90;69.80;;;;;;5014080;28;20080;-80
2022/07/04 01:40:46;;;;;;;7.38;3.10;;;28.80;70.40;;;;;;5013849;28;20474;-80
2022/07/04 01:43:12;;;;;;;4.05;2.13;;;28.70;70.80;;;;;;5013867;28;20100;-81
2022/07/04 01:45:37;;;;;;;5.20;2.72;;;28.70;70.30;;;;;;5016527;28;20441;-82
2022/07/04 01:48:08;;;;;;;4.32;2.55;;;28.80;70.40;;;;;;5013748;28;20041;-81
2022/07/04 01:50:34;;;;;;;4.50;2.50;;;28.90;70.10;;;;;;5013643;28;20113;-81
2022/07/04 01:53:01;;;;;;;5.75;2.55;;;28.90;69.70;;;;;;5013860;28;20103;-81
2022/07/04 01:55:27;;;;;;;5.18;2.13;;;28.90;69.40;;;;;;5013561;28;20030;-80
2022/07/04 01:57:53;;;;;;;4.63;2.63;;;29.00;69.20;;;;;;5013871;28;20042;-80
2022/07/04 02:03:02;;;;;;;4.15;2.25;;;29.00;68.60;;;;;;5013419;28;20040;-81
2022/07/04 02:05:28;;;;;;;6.15;2.70;;;29.00;68.70;;;;;;5013514;28;20021;-80
2022/07/04 02:07:54;;;;;;;2.80;1.90;;;29.00;68.60;;;;;;5033072;28;20072;-80
2022/07/04 02:10:20;;;;;;;10.30;2.78;;;29.10;68.30;;;;;;5032038;28;20029;-81
2022/07/04 02:13:01;;;;;;;5.72;2.50;;;29.10;68.10;;;;;;5018743;28;20042;-80
2022/07/04 02:15:33;;;;;;;3.63;2.67;;;29.10;68.00;;;;;;4993552;28;20033;-79
2022/07/04 02:17:59;;;;;;;4.72;2.53;;;29.10;68.10;;;;;;4993937;28;20038;-80
2022/07/04 02:20:25;;;;;;;7.00;3.00;;;29.10;68.40;;;;;;4994000;28;20035;-79
2022/07/04 02:22:51;;;;;;;3.15;2.38;;;29.10;68.50;;;;;;4994274;28;20026;-80
2022/07/04 02:25:17;;;;;;;3.03;2.40;;;29.10;68.60;;;;;;4993756;28;20362;-79
2022/07/04 02:27:43;;;;;;;4.75;2.75;;;29.10;68.80;;;;;;4993773;28;20034;-79
2022/07/04 02:30:09;;;;;;;6.75;2.80;;;29.10;68.90;;;;;;4993689;28;20034;-79
2022/07/04 02:32:35;;;;;;;3.70;2.80;;;29.10;68.90;;;;;;5023192;28;20033;-80
2022/07/04 02:35:02;;;;;;;5.72;2.70;;;29.10;68.80;;;;;;5013024;28;20049;-80
2022/07/04 02:37:28;;;;;;;5.78;2.88;;;29.00;68.70;;;;;;5004242;28;20476;-81
2022/07/04 02:39:53;;;;;;;12.82;4.35;;;29.00;68.90;;;;;;4976172;28;20126;-77
2022/07/04 02:42:19;;;;;;;4.60;3.40;;;29.00;69.30;;;;;;4993516;28;20501;-78
2022/07/04 02:44:45;;;;;;;6.70;3.45;;;28.90;69.20;;;;;;4993714;28;20023;-79
2022/07/04 02:47:11;;;;;;;4.15;2.75;;;28.80;69.30;;;;;;4993514;28;20455;-78
2022/07/04 02:49:37;;;;;;;8.77;3.92;;;28.70;69.40;;;;;;4993870;28;20031;-78
2022/07/04 02:52:02;;;;;;;5.63;3.53;;;28.60;70.00;;;;;;4994330;28;20557;-78
2022/07/04 02:54:28;;;;;;;7.65;3.67;;;28.60;70.30;;;;;;4994550;28;20048;-79
2022/07/04 02:56:54;;;;;;;6.03;3.08;;;28.60;70.80;;;;;;5024890;28;20103;-78
2022/07/04 02:59:19;;;;;;;5.18;3.00;;;28.50;70.60;;;;;;5033739;28;20029;-78
2022/07/04 03:01:45;;;;;;;6.30;3.10;;;28.50;70.80;;;;;;5015199;28;20561;-79
2022/07/04 03:04:11;;;;;;;3.25;2.45;;;28.50;71.10;;;;;;5033060;28;20026;-79
2022/07/04 03:06:36;;;;;;;3.83;2.60;;;28.60;71.30;;;;;;5033080;28;20106;-78
2022/07/04 03:09:02;;;;;;;3.70;2.83;;;28.60;71.50;;;;;;5032974;28;20446;-78
2022/07/04 03:11:28;;;;;;;8.93;3.95;;;28.60;71.50;;;;;;5032815;28;20469;-79
2022/07/04 03:13:54;;;;;;;7.55;3.15;;;28.60;71.60;;;;;;5024470;28;20018;-78
2022/07/04 03:16:19;;;;;;;4.85;3.00;;;28.60;71.70;;;;;;5013236;28;20037;-78
2022/07/04 03:18:45;;;;;;;3.72;2.67;;;28.60;71.80;;;;;;5013197;28;20356;-78
2022/07/04 03:21:11;;;;;;;6.85;3.45;;;28.60;72.10;;;;;;4976898;28;20038;-79
2022/07/04 03:23:36;;;;;;;3.75;2.90;;;28.60;72.20;;;;;;4997084;28;20026;-78
2022/07/04 03:26:02;;;;;;;10.80;3.30;;;28.70;72.50;;;;;;4996994;28;20026;-81
2022/07/04 03:28:28;;;;;;;4.68;3.33;;;28.60;72.80;;;;;;4997216;28;20032;-79
2022/07/04 03:30:54;;;;;;;6.18;3.47;;;28.60;72.90;;;;;;4996973;28;20038;-80
2022/07/04 03:33:20;;;;;;;6.68;3.40;;;28.60;73.20;;;;;;4996564;28;20061;-78
2022/07/04 03:35:46;;;;;;;4.18;3.03;;;28.50;73.30;;;;;;4996604;28;20042;-78
2022/07/04 03:38:12;;;;;;;5.53;3.33;;;28.50;73.40;;;;;;5000771;28;20026;-79
2022/07/04 03:40:38;;;;;;;8.02;3.60;;;28.50;73.50;;;;;;5035979;28;20040;-77
2022/07/04 03:43:06;;;;;;;6.45;3.67;;;28.50;73.70;;;;;;5035858;28;20021;-77
2022/07/04 03:45:32;;;;;;;5.65;3.75;;;28.50;73.80;;;;;;5033898;28;20109;-77
2022/07/04 03:47:57;;;;;;;6.82;4.50;;;28.50;73.90;;;;;;4996393;28;20106;-77
2022/07/04 03:50:23;;;;;;;6.80;3.75;;;28.50;74.20;;;;;;4996564;28;20081;-77
2022/07/04 03:52:49;;;;;;;6.20;3.60;;;28.50;74.10;;;;;;4996248;28;20084;-77
2022/07/04 03:55:15;;;;;;;10.02;4.47;;;28.50;74.20;;;;;;4996393;28;20482;-76
2022/07/04 03:57:40;;;;;;;5.38;3.67;;;28.50;74.20;;;;;;4996166;28;20332;-79
2022/07/04 04:00:07;;;;;;;6.00;3.60;;;28.50;74.20;;;;;;4996190;28;20057;-79
2022/07/04 04:02:33;;;;;;;8.05;4.00;;;28.50;74.20;;;;;;4996237;28;20015;-80
2022/07/04 04:07:44;;;;;;;6.10;3.30;;;28.50;74.00;;;;;;4996233;28;20626;-78
2022/07/04 04:10:09;;;;;;;3.42;2.78;;;28.50;73.70;;;;;;5032460;28;20048;-78
2022/07/04 04:12:35;;;;;;;5.40;3.25;;;28.40;73.50;;;;;;5035427;28;20035;-78
2022/07/04 04:15:01;;;;;;;5.68;3.03;;;28.40;73.50;;;;;;5035544;28;20029;-78
2022/07/04 04:17:26;;;;;;;5.55;2.78;;;28.40;73.30;;;;;;5003713;28;20069;-78
2022/07/04 04:19:52;;;;;;;6.32;3.22;;;28.40;73.20;;;;;;4978268;28;20045;-78
2022/07/04 04:22:18;;;;;;;5.97;2.65;;;28.30;73.10;;;;;;4996308;28;20101;-81
2022/07/04 04:24:43;;;;;;;3.15;2.78;;;28.40;73.10;;;;;;5015682;28;20049;-80
2022/07/04 04:27:09;;;;;;;4.00;2.63;;;28.40;73.20;;;;;;5015286;28;20366;-80
2022/07/04 04:29:35;;;;;;;6.00;3.10;;;28.30;73.10;;;;;;4997711;28;20117;-79
2022/07/04 04:32:00;;;;;;;4.70;2.90;;;28.30;73.30;;;;;;5014479;28;20034;-80
2022/07/04 04:34:33;;;;;;;7.20;2.83;;;28.40;73.30;;;;;;5014539;28;20062;-80
2022/07/04 04:36:59;;;;;;;4.82;2.50;;;28.40;73.40;;;;;;5015105;28;20033;-80
2022/07/04 04:39:25;;;;;;;7.82;3.33;;;28.30;73.20;;;;;;5014899;28;20048;-81
2022/07/04 04:41:51;;;;;;;3.80;2.78;;;28.40;73.10;;;;;;5013170;28;20018;-80
2022/07/04 04:44:17;;;;;;;5.05;2.90;;;28.40;72.90;;;;;;5000174;28;20041;-80
2022/07/04 04:46:42;;;;;;;6.78;2.88;;;28.30;72.70;;;;;;4995273;28;20458;-79
2022/07/04 04:49:08;;;;;;;4.43;2.95;;;28.30;72.70;;;;;;4992196;28;20037;-79
2022/07/04 04:51:34;;;;;;;4.57;3.15;;;28.30;72.70;;;;;;5014879;28;20030;-79
2022/07/04 04:53:59;;;;;;;5.80;2.88;;;28.30;72.60;;;;;;5015808;28;20109;-81
2022/07/04 04:56:25;;;;;;;4.43;3.08;;;28.30;72.80;;;;;;5027452;28;20138;-79
2022/07/04 04:58:51;;;;;;;3.70;3.10;;;28.30;72.60;;;;;;5034034;28;20048;-81
2022/07/04 05:01:16;;;;;;;5.13;3.08;;;28.30;72.60;;;;;;5007645;28;20401;-80
2022/07/04 05:03:42;;;;;;;6.38;3.05;;;28.30;72.50;;;;;;5016503;28;20484;-80
2022/07/04 05:06:09;;;;;;;5.18;2.45;;;28.30;72.40;;;;;;5015106;28;20042;-79
2022/07/04 05:08:41;;;;;;;4.43;2.58;;;28.30;72.20;;;;;;5014755;28;20097;-78
2022/07/04 05:11:06;;;;;;;4.35;3.45;;;28.30;72.20;;;;;;5014596;28;20036;-79
2022/07/04 05:13:32;;;;;;;3.90;3.10;;;28.40;72.30;;;;;;4999781;28;20034;-80
2022/07/04 05:15:58;;;;;;;5.60;3.30;;;28.30;72.20;;;;;;4994787;28;20470;-79
2022/07/04 05:18:24;;;;;;;10.25;4.28;;;28.30;72.50;;;;;;4994696;28;20030;-79
2022/07/04 05:20:50;;;;;;;7.32;4.22;;;28.30;72.70;;;;;;4994905;28;20045;-79
2022/07/04 05:23:15;;;;;;;8.27;4.50;;;28.10;72.20;;;;;;5012247;28;20079;-80
2022/07/04 05:25:41;;;;;;;6.07;4.25;;;28.10;72.20;;;;;;5013044;28;20482;-80
2022/07/04 05:28:07;;;;;;;6.25;3.10;;;28.00;72.00;;;;;;5001215;28;20028;-79
2022/07/04 05:30:32;;;;;;;8.23;5.30;;;27.90;72.30;;;;;;5015543;28;20114;-79
2022/07/04 05:33:11;;;;;;;11.38;3.67;;;28.00;73.00;;;;;;5033409;28;20025;-80
2022/07/04 05:35:41;;;;;;;7.65;3.47;;;27.90;72.80;;;;;;4993664;28;20050;-84
2022/07/04 05:38:06;;;;;;;6.28;3.70;;;27.90;72.90;;;;;;4998500;28;20030;-78
2022/07/04 05:43:38;;;;;;;5.85;3.28;;;28.00;72.80;;;;;;5008174;28;20378;-77
2022/07/04 05:46:03;;;;;;;7.68;3.60;;;28.00;72.40;;;;;;5013722;28;20041;-77
2022/07/04 05:48:29;;;;;;;5.63;2.65;;;28.10;72.30;;;;;;5013716;28;20474;-77
2022/07/04 05:50:55;;;;;;;4.10;2.90;;;28.10;71.60;;;;;;4996388;28;20367;-77
2022/07/04 05:53:21;;;;;;;5.05;2.58;;;28.20;71.30;;;;;;5013694;28;20036;-77
2022/07/04 05:55:47;;;;;;;8.38;3.42;;;28.20;70.80;;;;;;5013222;28;20040;-76
2022/07/04 05:58:13;;;;;;;4.30;2.67;;;28.30;70.20;;;;;;4993954;28;20066;-77
2022/07/04 06:00:39;;;;;;;3.13;2.80;;;28.30;69.30;;;;;;4993850;28;20041;-77
2022/07/04 06:03:06;;;;;;;3.47;2.65;;;28.40;68.80;;;;;;4994133;28;20022;-77
2022/07/04 06:05:32;;;;;;;13.32;3.00;;;28.40;68.20;;;;;;4994158;28;20037;-77
2022/07/04 06:07:58;;;;;;;3.45;2.55;;;28.40;68.10;;;;;;4976664;28;20053;-77
2022/07/04 06:10:23;;;;;;;7.70;2.85;;;28.50;68.00;;;;;;4993945;28;20410;-77
2022/07/04 06:12:49;;;;;;;6.05;2.40;;;28.50;67.50;;;;;;4993951;28;20045;-77
2022/07/04 06:15:15;;;;;;;2.28;1.98;;;28.60;67.10;;;;;;4993889;28;20039;-77
2022/07/04 06:17:41;;;;;;;6.18;2.38;;;28.60;67.00;;;;;;5009174;28;20034;-76
2022/07/04 06:20:07;;;;;;;3.92;2.55;;;28.70;66.70;;;;;;4993627;28;20038;-77
2022/07/04 06:22:44;;;;;;;3.60;2.17;;;28.80;66.10;;;;;;4994682;28;20022;-78
2022/07/04 06:25:17;;;;;;;2.50;1.98;;;28.80;65.90;;;;;;5026256;28;20025;-77
2022/07/04 06:27:44;;;;;;;4.53;2.00;;;28.80;65.40;;;;;;4995027;28;20044;-78
2022/07/04 06:30:10;;;;;;;2.38;2.03;;;28.90;65.50;;;;;;5002587;28;20087;-77
2022/07/04 06:32:46;;;;;;;5.05;2.13;;;28.90;65.40;;;;;;5011439;28;20033;-77
2022/07/04 06:37:56;;;;;;;6.32;2.20;;;29.10;65.20;;;;;;5028095;28;20048;-79
2022/07/04 06:40:23;;;;;;;3.35;1.70;;;29.20;65.30;;;;;;5030109;28;20462;-78
2022/07/04 06:42:50;;;;;;;2.70;2.00;;;29.20;65.20;;;;;;5021610;28;20038;-77
2022/07/04 06:45:16;;;;;;;5.63;2.13;;;29.30;65.20;;;;;;5018657;28;20501;-75
2022/07/04 06:47:41;;;;;;;3.17;1.83;;;29.30;65.00;;;;;;5027237;28;20045;-75
2022/07/04 06:50:08;;;;;;;3.08;1.88;;;29.30;64.80;;;;;;5010696;28;20069;-75
2022/07/04 06:52:34;;;;;;;5.35;1.70;;;29.40;64.80;;;;;;5012011;28;20417;-84
2022/07/04 06:55:00;;;;;;;4.00;1.92;;;29.40;64.50;;;;;;5011973;28;20042;-76
2022/07/04 06:57:26;;;;;;;4.97;2.10;;;29.50;64.30;;;;;;5026384;28;20030;-76
2022/07/04 06:59:52;;;;;;;4.45;2.30;;;29.50;63.80;;;;;;5031887;28;20033;-85
2022/07/04 07:02:18;;;;;;;2.53;1.67;;;29.60;64.00;;;;;;5021670;28;20017;-86
2022/07/04 07:04:44;;;;;;;2.10;1.50;;;29.70;64.00;;;;;;5026710;28;20018;-76
2022/07/04 07:07:09;;;;;;;3.03;1.80;;;29.70;63.40;;;;;;5014378;28;20112;-76
2022/07/04 07:09:35;;;;;;;6.20;1.73;;;29.80;63.10;;;;;;5002063;28;20037;-76
2022/07/04 07:12:02;;;;;;;3.33;1.75;;;29.80;62.90;;;;;;5032161;28;20528;-77
2022/07/04 07:14:28;;;;;;;3.33;1.73;;;29.80;62.60;;;;;;5004830;28;20053;-76
2022/07/04 07:16:54;;;;;;;1.83;1.38;;;29.90;62.40;;;;;;5024958;28;20018;-76
2022/07/04 07:19:19;;;;;;;3.33;2.08;;;29.90;62.20;;;;;;5029289;28;20029;-77
2022/07/04 07:21:45;;;;;;;6.70;1.90;;;29.90;61.70;;;;;;5017620;28;20034;-79
2022/07/04 07:24:11;;;;;;;9.65;1.90;;;30.00;61.00;;;;;;5016018;28;20105;-77
2022/07/04 07:26:37;;;;;;;3.42;2.13;;;30.00;60.50;;;;;;5019362;28;20052;-78
2022/07/04 07:29:02;;;;;;;3.90;1.38;;;30.00;59.60;;;;;;5023661;28;20562;-85
2022/07/04 07:31:28;;;;;;;2.72;1.73;;;30.10;60.20;;;;;;5006346;28;20025;-87
2022/07/04 07:33:54;;;;;;;2.42;1.40;;;30.10;60.00;;;;;;5014454;28;20054;-86
2022/07/04 07:36:20;;;;;;;3.42;2.00;;;30.20;60.20;;;;;;5018415;28;20029;-85
2022/07/04 07:38:45;;;;;;;2.55;1.67;;;30.20;59.80;;;;;;5021144;28;20048;-86
2022/07/04 07:41:11;;;;;;;3.15;1.58;;;30.30;58.90;;;;;;5028692;28;20546;-83
2022/07/04 07:43:38;;;;;;;2.92;1.55;;;30.30;58.60;;;;;;5022497;28;20033;-85
2022/07/04 07:46:08;;;;;;;3.55;1.92;;;30.40;58.60;;;;;;4997962;28;20022;-85
2022/07/04 07:48:34;;;;;;;2.22;1.40;;;30.40;58.30;;;;;;5019524;28;20032;-85
2022/07/04 07:51:00;;;;;;;3.42;1.92;;;30.40;58.10;;;;;;4999104;28;20026;-86
2022/07/04 07:53:26;;;;;;;4.18;1.70;;;30.50;57.30;;;;;;5026538;28;20078;-86
2022/07/04 07:55:51;;;;;;;2.22;1.38;;;30.60;57.80;;;;;;5025464;28;20034;-84
2022/07/04 07:58:19;;;;;;;3.83;1.50;;;30.60;57.50;;;;;;4999904;28;20031;-85
2022/07/04 08:00:45;;;;;;;3.47;1.90;;;30.70;57.70;;;;;;5027444;28;20030;-84
2022/07/04 08:05:55;;;;;;;5.63;2.10;;;30.80;57.60;;;;;;5014877;28;20506;-83
2022/07/04 08:08:23;;;;;;;1.90;1.73;;;30.90;57.70;;;;;;5016393;28;20100;-84
2022/07/04 08:10:48;;;;;;;4.65;1.73;;;30.90;57.70;;;;;;5015309;28;20224;-85
2022/07/04 08:13:14;;;;;;;3.70;2.10;;;31.00;57.60;;;;;;5015819;28;20474;-85
2022/07/04 08:15:40;;;;;;;4.32;1.75;;;31.00;57.90;;;;;;5014313;28;20041;-84
2022/07/04 08:18:06;;;;;;;5.93;2.10;;;31.10;57.30;;;;;;4996841;28;20108;-83
2022/07/04 08:20:31;;;;;;;2.55;1.70;;;31.10;57.40;;;;;;5014630;28;20065;-82
2022/07/04 08:22:57;;;;;;;3.35;1.80;;;31.20;57.50;;;;;;5014260;28;20018;-84
2022/07/04 08:25:23;;;;;;;2.67;1.60;;;31.20;57.10;;;;;;5012972;28;20030;-83
2022/07/04 08:27:49;;;;;;;4.88;2.15;;;31.20;56.90;;;;;;4996460;28;20080;-83
2022/07/04 08:30:15;;;;;;;2.55;1.67;;;31.30;57.50;;;;;;5029880;28;20450;-83
2022/07/04 08:32:40;;;;;;;3.08;1.52;;;31.40;57.00;;;;;;5016004;28;20100;-84
2022/07/04 08:35:06;;;;;;;8.77;2.15;;;31.40;57.20;;;;;;5013761;28;20046;-84
2022/07/04 08:37:32;;;;;;;3.78;1.42;;;31.40;56.70;;;;;;5013313;28;20440;-82
2022/07/04 08:39:58;;;;;;;3.15;1.80;;;31.50;56.90;;;;;;5014109;28;20580;-83
2022/07/04 08:42:23;;;;;;;3.60;1.88;;;31.60;56.50;;;;;;5014086;28;20010;-83
2022/07/04 08:44:51;;;;;;;2.42;1.55;;;31.60;56.10;;;;;;5013196;28;20070;-78
2022/07/04 08:47:22;;;;;;;6.18;2.20;;;31.70;55.60;;;;;;5012928;28;20367;-78
2022/07/04 08:50:02;;;;;;;1.88;1.20;;;31.70;55.40;;;;;;4995269;28;20038;-78
2022/07/04 08:52:58;;;;;;;4.30;1.40;;;31.70;55.10;;;;;;4994621;28;20025;-77
2022/07/04 08:58:25;;;;;;;1.85;1.48;;;31.90;55.00;;;;;;5012323;28;20543;-78
2022/07/04 09:00:58;;;;;;;3.08;1.55;;;32.00;55.10;;;;;;5013099;28;20493;-78
2022/07/04 09:03:25;;;;;;;3.95;1.80;;;32.10;52.70;;;;;;5013982;28;20014;-79
2022/07/04 09:05:51;;;;;;;2.90;1.48;;;32.20;53.30;;;;;;5016338;28;20145;-78
2022/07/04 09:08:17;;;;;;;1.85;1.17;;;32.20;53.50;;;;;;5016295;28;20018;-77
2022/07/04 09:10:43;;;;;;;4.20;1.52;;;32.30;53.10;;;;;;5014175;28;20030;-77
2022/07/04 09:13:11;;;;;;;26.42;20.63;;;32.40;52.60;;;;;;5017732;28;20446;-78
2022/07/04 09:15:37;;;;;;;7.93;6.40;;;32.40;51.60;;;;;;5017096;28;20040;-79
2022/07/04 09:18:03;;;;;;;20.63;15.82;;;32.50;51.40;;;;;;5015294;28;20061;-78
2022/07/04 09:20:32;;;;;;;8.23;7.40;;;32.60;51.50;;;;;;5015092;28;20478;-78
2022/07/04 09:22:58;;;;;;;4.43;2.73;;;32.60;50.30;;;;;;5007048;28;20073;-77
2022/07/04 09:25:25;;;;;;;5.10;1.67;;;32.70;50.90;;;;;;5011284;28;20058;-77
2022/07/04 09:27:56;;;;;;;2.70;1.80;;;32.80;50.50;;;;;;5012291;28;20121;-77
2022/07/04 09:30:24;;;;;;;2.08;1.27;;;32.80;51.00;;;;;;4995118;28;20057;-77
2022/07/04 09:32:52;;;;;;;4.32;1.65;;;32.90;51.10;;;;;;5012638;28;20045;-77
2022/07/04 09:35:25;;;;;;;4.47;1.80;;;33.00;50.90;;;;;;5012269;28;20073;-76
2022/07/04 09:37:53;;;;;;;2.58;1.60;;;33.00;51.10;;;;;;5012616;28;20396;-77
2022/07/04 09:41:24;;;;;;;1.92;1.48;;;33.10;50.70;;;;;;5012272;28;20083;-78
2022/07/04 09:43:21;;;;;;;4.30;1.77;;;33.20;49.20;;;;;;5012410;28;20096;-76
2022/07/04 09:45:57;;;;;;;2.38;1.17;;;33.30;49.60;;;;;;5012494;28;20447;-77
2022/07/04 09:48:23;;;;;;;1.52;1.20;;;33.40;50.40;;;;;;4992254;28;20048;-77
2022/07/04 09:50:52;;;;;;;2.80;1.38;;;33.50;50.30;;;;;;5012225;28;20036;-76
2022/07/04 09:53:18;;;;;;;1.75;1.35;;;33.60;49.90;;;;;;5012625;28;20030;-77
2022/07/04 09:55:47;;;;;;;1.40;1.20;;;33.70;49.90;;;;;;5010872;28;20053;-77
2022/07/04 09:58:15;;;;;;;1.52;1.23;;;33.80;50.00;;;;;;5012004;28;20026;-81
2022/07/04 10:00:43;;;;;;;3.10;1.60;;;33.90;49.00;;;;;;5015987;28;20068;-80
2022/07/04 10:03:26;;;;;;;1.50;0.90;;;34.00;49.20;;;;;;5016902;28;20026;-80
2022/07/04 10:06:15;;;;;;;2.05;1.35;;;34.10;47.80;;;;;;5023047;28;20040;-80
2022/07/04 10:08:42;;;;;;;2.05;1.35;;;34.20;47.20;;;;;;4998744;28;20489;-80
2022/07/04 10:11:09;;;;;;;4.32;1.00;;;34.20;47.50;;;;;;5018531;28;20044;-81
2022/07/04 10:13:35;;;;;;;3.47;1.00;;;34.30;47.60;;;;;;5022229;28;20025;-81
2022/07/04 10:16:01;;;;;;;1.30;1.13;;;34.30;47.60;;;;;;5013606;28;20038;-81
2022/07/04 10:18:27;;;;;;;2.92;1.20;;;34.50;47.70;;;;;;5014421;28;20029;-80
2022/07/04 10:20:54;;;;;;;3.35;1.30;;;34.60;46.60;;;;;;5026444;28;20040;-81
2022/07/04 10:23:22;;;;;;;1.60;1.00;;;34.70;46.40;;;;;;5014252;28;20037;-80
2022/07/04 10:25:53;;;;;;;2.75;1.52;;;34.80;45.90;;;;;;5010846;28;20363;-80
2022/07/04 10:28:20;;;;;;;4.70;1.15;;;34.90;45.10;;;;;;5012723;28;20021;-81
2022/07/04 10:30:58;;;;;;;2.95;1.13;;;34.90;45.30;;;;;;5013644;28;20069;-79
2022/07/04 10:33:28;;;;;;;2.22;0.90;;;34.90;45.00;;;;;;5015105;28;20113;-80
2022/07/04 10:36:01;;;;;;;2.08;0.82;;;34.90;45.70;;;;;;5017945;28;20037;-80
2022/07/04 10:38:32;;;;;;;1.50;1.05;;;35.00;45.70;;;;;;5013898;28;20045;-80
2022/07/04 10:41:01;;;;;;;3.55;1.60;;;35.00;45.50;;;;;;5020436;28;20038;-81
2022/07/04 10:43:41;;;;;;;3.35;1.27;;;35.00;45.40;;;;;;5022636;28;20022;-81
2022/07/04 10:46:15;;;;;;;2.25;1.10;;;35.10;45.60;;;;;;5016333;28;20069;-81
2022/07/04 10:48:54;;;;;;;3.78;1.10;;;35.00;45.00;;;;;;5016927;28;20077;-80
2022/07/04 10:51:35;;;;;;;1.88;1.02;;;35.00;44.00;;;;;;5021372;28;20026;-81
2022/07/04 10:54:04;;;;;;;1.00;0.90;;;35.00;42.70;;;;;;5016041;28;20034;-81
2022/07/04 10:56:29;;;;;;;1.40;1.15;;;35.00;42.90;;;;;;5016440;28;20037;-81
2022/07/04 10:58:59;;;;;;;4.55;1.33;;;35.10;43.40;;;;;;4980480;28;20045;-81
2022/07/04 11:01:24;;;;;;;3.05;1.30;;;35.20;43.30;;;;;;5024618;28;20038;-81
2022/07/04 11:03:52;;;;;;;3.08;1.40;;;35.20;44.00;;;;;;5025667;28;20024;-81
2022/07/04 11:06:46;;;;;;;1.20;1.10;;;35.40;43.90;;;;;;5023148;28;20397;-81
2022/07/04 11:09:18;;;;;;;4.00;1.50;;;35.60;43.40;;;;;;4996041;28;20108;-81
2022/07/04 11:11:55;;;;;;;1.55;1.02;;;35.70;43.30;;;;;;4996837;28;20040;-81
2022/07/04 11:14:40;;;;;;;2.47;1.48;;;35.90;42.90;;;;;;4998785;28;20027;-80
2022/07/04 11:17:07;;;;;;;2.65;1.75;;;36.00;42.80;;;;;;5018227;28;20033;-80
2022/07/04 11:19:33;;;;;;;3.63;1.88;;;36.20;43.30;;;;;;5006156;28;20030;-80
2022/07/04 11:21:59;;;;;;;5.25;1.73;;;36.40;43.30;;;;;;5021726;28;20136;-77
2022/07/04 11:24:25;;;;;;;1.38;1.20;;;36.50;41.50;;;;;;5015157;28;20020;-81
2022/07/04 11:26:52;;;;;;;2.97;1.10;;;36.70;42.50;;;;;;5014247;28;20025;-81
2022/07/04 11:29:18;;;;;;;3.38;1.30;;;37.00;42.00;;;;;;4997552;28;20068;-81
2022/07/04 11:31:46;;;;;;;2.53;1.30;;;37.10;41.40;;;;;;5015276;28;20100;-81
2022/07/04 11:34:12;;;;;;;1.92;1.10;;;37.20;40.80;;;;;;5014408;28;20038;-80
2022/07/04 11:36:40;;;;;;;2.70;1.35;;;37.20;40.80;;;;;;5014578;28;20022;-81
2022/07/04 11:39:19;;;;;;;2.10;1.20;;;37.10;41.20;;;;;;5014882;28;20067;-81
2022/07/04 11:47:35;;;;;;;32.33;28.98;;;36.60;40.50;;;;;;5014881;28;20092;-80
2022/07/04 11:50:02;;;;;;;40.65;31.23;;;36.50;41.10;;;;;;4997040;28;20437;-79
2022/07/04 11:52:30;;;;;;;16.30;14.60;;;36.40;41.40;;;;;;5016747;28;20045;-82
2022/07/04 11:54:57;;;;;;;5.28;4.55;;;36.50;41.60;;;;;;5014323;28;20026;-78
2022/07/04 11:57:28;;;;;;;4.07;2.30;;;36.50;41.40;;;;;;5014258;28;20369;-77
2022/07/04 12:00:11;;;;;;;2.13;1.50;;;36.70;41.30;;;;;;4996584;28;20034;-78
2022/07/04 12:02:37;;;;;;;1.45;1.35;;;36.80;40.80;;;;;;5012953;28;20101;-78
2022/07/04 12:05:06;;;;;;;1.55;1.25;;;36.90;41.20;;;;;;4996873;28;20034;-78
2022/07/04 12:07:34;;;;;;;2.17;1.10;;;36.90;40.60;;;;;;5014148;28;20029;-78
2022/07/04 12:10:10;;;;;;;2.97;1.10;;;36.90;40.40;;;;;;5014170;28;20049;-78
2022/07/04 12:12:55;;;;;;;1.40;1.00;;;36.80;39.60;;;;;;5014196;28;20113;-77
2022/07/04 12:15:23;;;;;;;3.42;1.90;;;36.60;40.10;;;;;;4998193;28;20033;-78
2022/07/04 12:17:54;;;;;;;1.60;1.00;;;36.40;39.50;;;;;;5014045;28;20489;-77
2022/07/04 12:20:24;;;;;;;1.05;0.93;;;36.30;40.20;;;;;;5013981;28;20034;-78
2022/07/04 12:22:54;;;;;;;1.98;1.02;;;36.10;40.40;;;;;;4996642;28;20463;-77
2022/07/04 12:25:31;;;;;;;1.75;1.08;;;36.00;40.50;;;;;;5010700;28;20381;-80
2022/07/04 12:27:59;;;;;;;3.83;1.10;;;35.90;40.50;;;;;;5012045;28;20084;-79
2022/07/04 12:30:27;;;;;;;4.07;1.30;;;35.80;40.40;;;;;;5014691;28;20425;-78
2022/07/04 12:32:57;;;;;;;3.90;1.15;;;35.70;40.50;;;;;;4997207;28;20450;-78
2022/07/04 12:35:32;;;;;;;3.65;0.70;;;35.70;41.20;;;;;;5014978;28;20022;-78
2022/07/04 12:38:09;;;;;;;1.52;1.05;;;35.60;39.30;;;;;;5012273;28;20508;-78
2022/07/04 12:40:36;;;;;;;2.00;1.08;;;35.60;39.70;;;;;;5012137;28;20030;-80
2022/07/04 12:43:05;;;;;;;4.55;1.33;;;35.60;39.90;;;;;;5015120;28;20018;-80
2022/07/04 12:45:47;;;;;;;0.82;0.80;;;35.50;40.30;;;;;;5015092;28;20030;-80
2022/07/04 12:48:31;;;;;;;3.30;1.55;;;35.60;40.90;;;;;;5014612;28;20103;-80
2022/07/04 12:51:16;;;;;;;2.30;1.10;;;35.80;39.50;;;;;;5014794;28;20118;-79
2022/07/04 12:53:43;;;;;;;4.72;1.33;;;35.80;39.60;;;;;;5013988;28;20026;-80
2022/07/04 12:56:10;;;;;;;1.35;1.15;;;35.70;39.70;;;;;;4998983;28;20033;-78
2022/07/04 12:58:36;;;;;;;1.00;0.85;;;35.70;40.10;;;;;;5017579;28;20029;-79
2022/07/04 13:01:03;;;;;;;3.00;1.38;;;35.70;40.20;;;;;;5034363;28;20049;-77
2022/07/04 13:03:28;;;;;;;1.73;1.15;;;35.70;38.80;;;;;;5030964;28;20029;-77
2022/07/04 13:05:57;;;;;;;2.97;1.00;;;35.70;38.70;;;;;;5014769;28;20055;-77
2022/07/04 13:08:23;;;;;;;1.63;0.80;;;35.70;38.20;;;;;;4981457;28;20034;-77
2022/07/04 13:12:23;;;;;;;1.13;0.90;;;35.70;38.10;;;;;;4995563;28;20045;-80